sensor_id;sensor_type;location;lat;lon;timestamp;temperature;humidity
64499;SHT31;51087;55.718;21.122;2023-03-23T00:00:05;7.98;99.99
64499;SHT31;51087;55.718;21.122;2023-03-23T00:02:31;8.06;99.99
64499;SHT31;51087;55.718;21.122;2023-03-23T00:05:03;8.01;99.99
64499;SHT31;51087;55.718;21.122;2023-03-23T00:07:29;8.03;99.99
64499;SHT31;51087;55.718;21.122;2023-03-23T00:09:55;8.04;99.99
64499;SHT31;51087;55.718;21.122;2023-03-23T00:12:22;8.00;99.99
64499;SHT31;51087;55.718;21.122;2023-03-23T00:14:54;8.00;99.99
64499;SHT31;51087;55.718;21.122;2023-03-23T00:17:19;8.03;99.99
64499;SHT31;51087;55.718;21.122;2023-03-23T00:19:45;8.01;99.99
64499;SHT31;51087;55.718;21.122;2023-03-23T00:22:15;8.00;99.99
64499;SHT31;51087;55.718;21.122;2023-03-23T00:24:42;7.90;99.99
64499;SHT31;51087;55.718;21.122;2023-03-23T00:27:08;7.89;99.99
64499;SHT31;51087;55.718;21.122;2023-03-23T00:29:34;7.87;99.99
64499;SHT31;51087;55.718;21.122;2023-03-23T00:32:00;7.75;99.99
64499;SHT31;51087;55.718;21.122;2023-03-23T00:34:27;7.76;99.99
64499;SHT31;51087;55.718;21.122;2023-03-23T00:36:57;7.75;99.99
64499;SHT31;51087;55.718;21.122;2023-03-23T00:39:26;7.69;99.99
64499;SHT31;51087;55.718;21.122;2023-03-23T00:41:53;7.63;99.99
64499;SHT31;51087;55.718;21.122;2023-03-23T00:44:29;7.69;99.99
64499;SHT31;51087;55.718;21.122;2023-03-23T00:46:56;7.56;99.99
64499;SHT31;51087;55.718;21.122;2023-03-23T00:49:22;7.65;99.99
64499;SHT31;51087;55.718;21.122;2023-03-23T00:51:51;7.65;99.99
64499;SHT31;51087;55.718;21.122;2023-03-23T00:54:16;7.66;99.99
64499;SHT31;51087;55.718;21.122;2023-03-23T00:56:41;7.68;99.99
64499;SHT31;51087;55.718;21.122;2023-03-23T00:59:07;7.66;99.99
64499;SHT31;51087;55.718;21.122;2023-03-23T01:01:33;7.63;99.99
64499;SHT31;51087;55.718;21.122;2023-03-23T01:04:00;7.55;99.99
64499;SHT31;51087;55.718;21.122;2023-03-23T01:06:33;7.48;99.99
64499;SHT31;51087;55.718;21.122;2023-03-23T01:09:02;7.41;99.99
64499;SHT31;51087;55.718;21.122;2023-03-23T01:11:28;7.36;99.99
64499;SHT31;51087;55.718;21.122;2023-03-23T01:13:54;7.36;99.99
64499;SHT31;51087;55.718;21.122;2023-03-23T01:16:20;7.28;99.99
64499;SHT31;51087;55.718;21.122;2023-03-23T01:18:45;7.30;99.99
64499;SHT31;51087;55.718;21.122;2023-03-23T01:21:14;7.20;99.99
64499;SHT31;51087;55.718;21.122;2023-03-23T01:23:40;7.18;99.99
64499;SHT31;51087;55.718;21.122;2023-03-23T01:26:07;7.15;99.99
64499;SHT31;51087;55.718;21.122;2023-03-23T01:28:33;7.11;99.99
64499;SHT31;51087;55.718;21.122;2023-03-23T01:31:06;7.08;99.99
64499;SHT31;51087;55.718;21.122;2023-03-23T01:33:32;6.99;99.99
64499;SHT31;51087;55.718;21.122;2023-03-23T01:35:58;7.00;99.99
64499;SHT31;51087;55.718;21.122;2023-03-23T01:38:23;6.92;99.99
64499;SHT31;51087;55.718;21.122;2023-03-23T01:40:49;6.87;99.99
64499;SHT31;51087;55.718;21.122;2023-03-23T01:43:15;6.82;99.99
64499;SHT31;51087;55.718;21.122;2023-03-23T01:45:41;6.77;99.99
64499;SHT31;51087;55.718;21.122;2023-03-23T01:50:42;6.71;99.99
64499;SHT31;51087;55.718;21.122;2023-03-23T01:53:10;6.68;99.99
64499;SHT31;51087;55.718;21.122;2023-03-23T01:55:38;6.63;99.99
64499;SHT31;51087;55.718;21.122;2023-03-23T01:58:06;6.63;99.99
64499;SHT31;51087;55.718;21.122;2023-03-23T02:00:32;6.72;99.99
64499;SHT31;51087;55.718;21.122;2023-03-23T02:03:00;6.69;99.99
64499;SHT31;51087;55.718;21.122;2023-03-23T02:05:34;6.65;99.99
64499;SHT31;51087;55.718;21.122;2023-03-23T02:08:02;6.61;99.99
64499;SHT31;51087;55.718;21.122;2023-03-23T02:10:31;6.66;99.99
64499;SHT31;51087;55.718;21.122;2023-03-23T02:13:02;6.63;99.99
64499;SHT31;51087;55.718;21.122;2023-03-23T02:15:36;6.62;99.99
64499;SHT31;51087;55.718;21.122;2023-03-23T02:18:25;6.62;99.99
64499;SHT31;51087;55.718;21.122;2023-03-23T02:29:00;6.55;99.99
64499;SHT31;51087;55.718;21.122;2023-03-23T02:32:10;6.49;99.99
64499;SHT31;51087;55.718;21.122;2023-03-23T02:34:28;6.53;99.99
64499;SHT31;51087;55.718;21.122;2023-03-23T02:37:00;6.56;99.99
64499;SHT31;51087;55.718;21.122;2023-03-23T02:41:58;6.62;99.99
64499;SHT31;51087;55.718;21.122;2023-03-23T02:44:26;6.63;99.99
64499;SHT31;51087;55.718;21.122;2023-03-23T02:46:56;6.63;99.99
64499;SHT31;51087;55.718;21.122;2023-03-23T02:49:24;6.63;99.99
64499;SHT31;51087;55.718;21.122;2023-03-23T02:51:51;6.61;99.99
64499;SHT31;51087;55.718;21.122;2023-03-23T02:54:18;6.61;99.99
64499;SHT31;51087;55.718;21.122;2023-03-23T02:56:45;6.62;99.99
64499;SHT31;51087;55.718;21.122;2023-03-23T02:59:11;6.61;99.99
64499;SHT31;51087;55.718;21.122;2023-03-23T03:04:13;6.87;99.99
64499;SHT31;51087;55.718;21.122;2023-03-23T03:06:43;6.84;99.99
64499;SHT31;51087;55.718;21.122;2023-03-23T03:11:46;6.79;99.99
64499;SHT31;51087;55.718;21.122;2023-03-23T03:14:36;6.75;99.99
64499;SHT31;51087;55.718;21.122;2023-03-23T03:17:17;6.76;99.99
64499;SHT31;51087;55.718;21.122;2023-03-23T03:19:48;6.80;99.99
64499;SHT31;51087;55.718;21.122;2023-03-23T03:22:15;7.01;99.95
64499;SHT31;51087;55.718;21.122;2023-03-23T03:24:42;7.28;98.92
64499;SHT31;51087;55.718;21.122;2023-03-23T03:27:17;7.38;98.48
64499;SHT31;51087;55.718;21.122;2023-03-23T03:29:45;7.55;98.12
64499;SHT31;51087;55.718;21.122;2023-03-23T03:32:26;7.39;97.67
64499;SHT31;51087;55.718;21.122;2023-03-23T03:34:58;7.39;97.90
64499;SHT31;51087;55.718;21.122;2023-03-23T03:37:23;7.17;98.13
64499;SHT31;51087;55.718;21.122;2023-03-23T03:39:49;6.96;99.06
64499;SHT31;51087;55.718;21.122;2023-03-23T03:42:16;6.82;99.64
64499;SHT31;51087;55.718;21.122;2023-03-23T03:44:41;6.79;99.89
64499;SHT31;51087;55.718;21.122;2023-03-23T03:47:06;6.72;99.99
64499;SHT31;51087;55.718;21.122;2023-03-23T03:49:32;6.80;99.99
64499;SHT31;51087;55.718;21.122;2023-03-23T03:51:57;6.63;99.99
64499;SHT31;51087;55.718;21.122;2023-03-23T03:54:23;6.56;99.99
64499;SHT31;51087;55.718;21.122;2023-03-23T03:56:48;6.59;99.99
64499;SHT31;51087;55.718;21.122;2023-03-23T03:59:16;6.59;99.99
64499;SHT31;51087;55.718;21.122;2023-03-23T04:01:42;6.61;99.99
64499;SHT31;51087;55.718;21.122;2023-03-23T04:04:07;6.57;99.99
64499;SHT31;51087;55.718;21.122;2023-03-23T04:06:34;6.59;99.99
64499;SHT31;51087;55.718;21.122;2023-03-23T04:09:02;6.53;99.99
64499;SHT31;51087;55.718;21.122;2023-03-23T04:11:30;6.50;99.99
64499;SHT31;51087;55.718;21.122;2023-03-23T04:13:56;6.44;99.99
64499;SHT31;51087;55.718;21.122;2023-03-23T04:16:21;6.46;99.99
64499;SHT31;51087;55.718;21.122;2023-03-23T04:18:47;6.42;99.99
64499;SHT31;51087;55.718;21.122;2023-03-23T04:21:13;6.42;99.99
64499;SHT31;51087;55.718;21.122;2023-03-23T04:23:39;6.44;99.99
64499;SHT31;51087;55.718;21.122;2023-03-23T04:26:05;6.37;99.99
64499;SHT31;51087;55.718;21.122;2023-03-23T04:28:31;6.48;99.99
64499;SHT31;51087;55.718;21.122;2023-03-23T04:31:00;6.48;99.99
64499;SHT31;51087;55.718;21.122;2023-03-23T04:33:28;6.57;99.99
64499;SHT31;51087;55.718;21.122;2023-03-23T04:35:55;6.61;99.99
64499;SHT31;51087;55.718;21.122;2023-03-23T04:38:22;6.63;99.99
64499;SHT31;51087;55.718;21.122;2023-03-23T04:40:50;6.65;99.99
64499;SHT31;51087;55.718;21.122;2023-03-23T04:43:20;6.73;99.99
64499;SHT31;51087;55.718;21.122;2023-03-23T04:45:51;6.76;99.99
64499;SHT31;51087;55.718;21.122;2023-03-23T04:48:17;6.76;99.99
64499;SHT31;51087;55.718;21.122;2023-03-23T04:50:44;6.76;99.99
64499;SHT31;51087;55.718;21.122;2023-03-23T04:53:10;6.76;99.99
64499;SHT31;51087;55.718;21.122;2023-03-23T04:55:36;6.80;99.99
64499;SHT31;51087;55.718;21.122;2023-03-23T04:58:06;6.92;99.99
64499;SHT31;51087;55.718;21.122;2023-03-23T05:00:33;7.10;99.99
64499;SHT31;51087;55.718;21.122;2023-03-23T05:02:59;7.13;99.99
64499;SHT31;51087;55.718;21.122;2023-03-23T05:05:26;7.20;99.99
64499;SHT31;51087;55.718;21.122;2023-03-23T05:07:53;7.22;99.99
64499;SHT31;51087;55.718;21.122;2023-03-23T05:10:19;7.28;99.99
64499;SHT31;51087;55.718;21.122;2023-03-23T05:12:44;7.41;99.99
64499;SHT31;51087;55.718;21.122;2023-03-23T05:15:12;7.45;99.99
64499;SHT31;51087;55.718;21.122;2023-03-23T05:17:38;7.55;99.99
64499;SHT31;51087;55.718;21.122;2023-03-23T05:20:06;7.68;99.99
64499;SHT31;51087;55.718;21.122;2023-03-23T05:22:35;7.79;99.99
64499;SHT31;51087;55.718;21.122;2023-03-23T05:25:01;7.80;99.99
64499;SHT31;51087;55.718;21.122;2023-03-23T05:27:30;7.93;99.99
64499;SHT31;51087;55.718;21.122;2023-03-23T05:29:56;7.97;99.99
64499;SHT31;51087;55.718;21.122;2023-03-23T05:32:24;7.90;99.99
64499;SHT31;51087;55.718;21.122;2023-03-23T05:35:00;7.82;99.96
64499;SHT31;51087;55.718;21.122;2023-03-23T05:37:27;7.73;99.99
64499;SHT31;51087;55.718;21.122;2023-03-23T05:39:59;7.65;99.99
64499;SHT31;51087;55.718;21.122;2023-03-23T05:42:27;7.63;99.99
64499;SHT31;51087;55.718;21.122;2023-03-23T05:44:52;7.61;99.99
64499;SHT31;51087;55.718;21.122;2023-03-23T05:47:18;7.59;99.99
64499;SHT31;51087;55.718;21.122;2023-03-23T05:49:44;7.51;99.99
64499;SHT31;51087;55.718;21.122;2023-03-23T05:52:09;7.52;99.99
64499;SHT31;51087;55.718;21.122;2023-03-23T05:54:35;7.47;99.99
64499;SHT31;51087;55.718;21.122;2023-03-23T05:57:01;7.54;99.99
64499;SHT31;51087;55.718;21.122;2023-03-23T05:59:27;7.62;99.99
64499;SHT31;51087;55.718;21.122;2023-03-23T06:01:52;7.70;99.99
64499;SHT31;51087;55.718;21.122;2023-03-23T06:04:19;7.87;99.82
64499;SHT31;51087;55.718;21.122;2023-03-23T06:06:44;7.91;99.70
64499;SHT31;51087;55.718;21.122;2023-03-23T06:09:10;7.94;99.44
64499;SHT31;51087;55.718;21.122;2023-03-23T06:11:36;8.03;99.31
64499;SHT31;51087;55.718;21.122;2023-03-23T06:14:02;8.13;99.28
64499;SHT31;51087;55.718;21.122;2023-03-23T06:16:28;8.27;99.19
64499;SHT31;51087;55.718;21.122;2023-03-23T06:18:54;8.28;99.08
64499;SHT31;51087;55.718;21.122;2023-03-23T06:21:19;8.30;99.07
64499;SHT31;51087;55.718;21.122;2023-03-23T06:23:46;8.25;99.34
64499;SHT31;51087;55.718;21.122;2023-03-23T06:26:14;8.28;99.27
64499;SHT31;51087;55.718;21.122;2023-03-23T06:28:41;8.30;99.21
64499;SHT31;51087;55.718;21.122;2023-03-23T06:31:07;8.30;99.31
64499;SHT31;51087;55.718;21.122;2023-03-23T06:33:34;8.30;99.26
64499;SHT31;51087;55.718;21.122;2023-03-23T06:36:01;8.27;99.04
64499;SHT31;51087;55.718;21.122;2023-03-23T06:38:27;8.15;99.10
64499;SHT31;51087;55.718;21.122;2023-03-23T06:40:53;8.13;99.10
64499;SHT31;51087;55.718;21.122;2023-03-23T06:43:19;8.11;99.31
64499;SHT31;51087;55.718;21.122;2023-03-23T06:45:45;8.07;99.27
64499;SHT31;51087;55.718;21.122;2023-03-23T06:48:10;8.11;99.13
64499;SHT31;51087;55.718;21.122;2023-03-23T06:50:36;8.11;99.01
64499;SHT31;51087;55.718;21.122;2023-03-23T06:53:01;8.03;99.17
64499;SHT31;51087;55.718;21.122;2023-03-23T06:55:27;7.97;99.23
64499;SHT31;51087;55.718;21.122;2023-03-23T06:57:52;7.91;99.15
64499;SHT31;51087;55.718;21.122;2023-03-23T07:00:18;7.93;99.06
64499;SHT31;51087;55.718;21.122;2023-03-23T07:02:43;7.86;99.25
64499;SHT31;51087;55.718;21.122;2023-03-23T07:05:10;7.89;99.37
64499;SHT31;51087;55.718;21.122;2023-03-23T07:07:37;7.98;99.36
64499;SHT31;51087;55.718;21.122;2023-03-23T07:10:04;8.01;99.07
64499;SHT31;51087;55.718;21.122;2023-03-23T07:12:29;8.00;99.15
64499;SHT31;51087;55.718;21.122;2023-03-23T07:14:55;8.06;98.95
64499;SHT31;51087;55.718;21.122;2023-03-23T07:17:21;8.07;98.99
64499;SHT31;51087;55.718;21.122;2023-03-23T07:19:46;7.96;99.11
64499;SHT31;51087;55.718;21.122;2023-03-23T07:22:12;7.85;99.33
64499;SHT31;51087;55.718;21.122;2023-03-23T07:24:37;7.75;99.98
64499;SHT31;51087;55.718;21.122;2023-03-23T07:27:03;7.63;99.99
64499;SHT31;51087;55.718;21.122;2023-03-23T07:29:29;7.65;99.99
64499;SHT31;51087;55.718;21.122;2023-03-23T07:31:57;7.56;99.99
64499;SHT31;51087;55.718;21.122;2023-03-23T07:34:22;7.59;99.99
64499;SHT31;51087;55.718;21.122;2023-03-23T07:36:48;7.47;99.99
64499;SHT31;51087;55.718;21.122;2023-03-23T07:39:14;7.42;99.99
64499;SHT31;51087;55.718;21.122;2023-03-23T07:41:39;7.35;99.99
64499;SHT31;51087;55.718;21.122;2023-03-23T07:44:05;7.34;99.99
64499;SHT31;51087;55.718;21.122;2023-03-23T07:46:31;7.25;99.99
64499;SHT31;51087;55.718;21.122;2023-03-23T07:48:57;7.34;99.99
64499;SHT31;51087;55.718;21.122;2023-03-23T07:51:23;7.30;99.99
64499;SHT31;51087;55.718;21.122;2023-03-23T07:53:48;7.35;99.99
64499;SHT31;51087;55.718;21.122;2023-03-23T07:56:15;7.38;99.99
64499;SHT31;51087;55.718;21.122;2023-03-23T07:58:44;7.41;99.99
64499;SHT31;51087;55.718;21.122;2023-03-23T08:01:10;7.41;99.99
64499;SHT31;51087;55.718;21.122;2023-03-23T08:03:36;7.31;99.99
64499;SHT31;51087;55.718;21.122;2023-03-23T08:06:02;7.38;99.99
64499;SHT31;51087;55.718;21.122;2023-03-23T08:08:28;7.38;99.99
64499;SHT31;51087;55.718;21.122;2023-03-23T08:10:53;7.42;99.99
64499;SHT31;51087;55.718;21.122;2023-03-23T08:13:19;7.47;99.99
64499;SHT31;51087;55.718;21.122;2023-03-23T08:15:44;7.49;99.99
64499;SHT31;51087;55.718;21.122;2023-03-23T08:18:10;7.59;99.99
64499;SHT31;51087;55.718;21.122;2023-03-23T08:20:36;7.51;99.99
64499;SHT31;51087;55.718;21.122;2023-03-23T08:23:02;7.63;99.99
64499;SHT31;51087;55.718;21.122;2023-03-23T08:25:29;7.83;99.99
64499;SHT31;51087;55.718;21.122;2023-03-23T08:27:57;7.90;99.99
64499;SHT31;51087;55.718;21.122;2023-03-23T08:30:23;7.79;99.99
64499;SHT31;51087;55.718;21.122;2023-03-23T08:32:49;7.85;99.99
64499;SHT31;51087;55.718;21.122;2023-03-23T08:35:16;7.86;99.99
64499;SHT31;51087;55.718;21.122;2023-03-23T08:37:42;7.86;99.99
64499;SHT31;51087;55.718;21.122;2023-03-23T08:40:10;7.85;99.99
64499;SHT31;51087;55.718;21.122;2023-03-23T08:42:40;7.90;99.99
64499;SHT31;51087;55.718;21.122;2023-03-23T08:45:07;7.91;99.99
64499;SHT31;51087;55.718;21.122;2023-03-23T08:47:34;8.00;99.99
64499;SHT31;51087;55.718;21.122;2023-03-23T08:50:00;7.90;99.99
64499;SHT31;51087;55.718;21.122;2023-03-23T08:52:27;7.89;99.99
64499;SHT31;51087;55.718;21.122;2023-03-23T08:54:53;7.80;99.99
64499;SHT31;51087;55.718;21.122;2023-03-23T08:57:19;7.83;99.99
64499;SHT31;51087;55.718;21.122;2023-03-23T08:59:45;7.79;99.99
64499;SHT31;51087;55.718;21.122;2023-03-23T09:02:10;7.72;99.99
64499;SHT31;51087;55.718;21.122;2023-03-23T09:04:38;7.80;99.99
64499;SHT31;51087;55.718;21.122;2023-03-23T09:07:03;7.79;99.99
64499;SHT31;51087;55.718;21.122;2023-03-23T09:09:29;7.86;99.99
64499;SHT31;51087;55.718;21.122;2023-03-23T09:11:54;7.91;99.99
64499;SHT31;51087;55.718;21.122;2023-03-23T09:14:20;7.86;99.99
64499;SHT31;51087;55.718;21.122;2023-03-23T09:16:45;7.86;99.99
64499;SHT31;51087;55.718;21.122;2023-03-23T09:19:11;7.86;99.99
64499;SHT31;51087;55.718;21.122;2023-03-23T09:21:38;7.96;99.99
64499;SHT31;51087;55.718;21.122;2023-03-23T09:24:04;7.91;99.99
64499;SHT31;51087;55.718;21.122;2023-03-23T09:26:30;7.91;99.99
64499;SHT31;51087;55.718;21.122;2023-03-23T09:28:55;7.85;99.99
64499;SHT31;51087;55.718;21.122;2023-03-23T09:31:22;7.85;99.99
64499;SHT31;51087;55.718;21.122;2023-03-23T09:33:48;7.87;99.99
64499;SHT31;51087;55.718;21.122;2023-03-23T09:36:17;7.85;99.99
64499;SHT31;51087;55.718;21.122;2023-03-23T09:38:43;7.91;99.99
64499;SHT31;51087;55.718;21.122;2023-03-23T09:41:33;7.94;99.99
64499;SHT31;51087;55.718;21.122;2023-03-23T09:44:20;7.97;99.99
64499;SHT31;51087;55.718;21.122;2023-03-23T09:49:33;7.91;99.99
64499;SHT31;51087;55.718;21.122;2023-03-23T09:52:05;7.97;99.99
64499;SHT31;51087;55.718;21.122;2023-03-23T09:54:40;8.01;99.99
64499;SHT31;51087;55.718;21.122;2023-03-23T09:57:14;8.06;99.99
64499;SHT31;51087;55.718;21.122;2023-03-23T09:59:56;8.04;99.99
64499;SHT31;51087;55.718;21.122;2023-03-23T10:07:38;8.13;99.99
64499;SHT31;51087;55.718;21.122;2023-03-23T10:10:04;8.17;99.99
64499;SHT31;51087;55.718;21.122;2023-03-23T10:15:30;8.34;99.99
64499;SHT31;51087;55.718;21.122;2023-03-23T10:21:17;8.46;99.99
64499;SHT31;51087;55.718;21.122;2023-03-23T10:24:01;8.61;99.99
64499;SHT31;51087;55.718;21.122;2023-03-23T10:29:08;8.49;99.99
64499;SHT31;51087;55.718;21.122;2023-03-23T10:31:49;8.58;99.99
64499;SHT31;51087;55.718;21.122;2023-03-23T10:34:36;8.66;99.99
64499;SHT31;51087;55.718;21.122;2023-03-23T10:39:38;8.72;99.99
64499;SHT31;51087;55.718;21.122;2023-03-23T10:42:08;8.73;99.99
64499;SHT31;51087;55.718;21.122;2023-03-23T10:44:34;8.69;99.99
64499;SHT31;51087;55.718;21.122;2023-03-23T10:47:06;8.75;99.99
64499;SHT31;51087;55.718;21.122;2023-03-23T10:49:36;8.82;99.99
64499;SHT31;51087;55.718;21.122;2023-03-23T10:52:11;8.80;99.99
64499;SHT31;51087;55.718;21.122;2023-03-23T10:54:46;8.87;99.99
64499;SHT31;51087;55.718;21.122;2023-03-23T10:57:28;8.91;99.99
64499;SHT31;51087;55.718;21.122;2023-03-23T11:00:17;8.94;99.99
64499;SHT31;51087;55.718;21.122;2023-03-23T11:05:27;9.10;99.99
64499;SHT31;51087;55.718;21.122;2023-03-23T11:07:57;9.01;99.99
64499;SHT31;51087;55.718;21.122;2023-03-23T11:10:28;9.07;99.99
64499;SHT31;51087;55.718;21.122;2023-03-23T11:12:58;9.10;99.99
64499;SHT31;51087;55.718;21.122;2023-03-23T11:18:05;9.06;99.99
64499;SHT31;51087;55.718;21.122;2023-03-23T11:20:38;9.16;99.99
64499;SHT31;51087;55.718;21.122;2023-03-23T11:23:34;9.16;99.99
64499;SHT31;51087;55.718;21.122;2023-03-23T11:26:30;9.16;99.99
64499;SHT31;51087;55.718;21.122;2023-03-23T11:29:05;9.21;99.99
64499;SHT31;51087;55.718;21.122;2023-03-23T11:31:40;9.23;99.99
64499;SHT31;51087;55.718;21.122;2023-03-23T11:34:17;9.13;99.99
64499;SHT31;51087;55.718;21.122;2023-03-23T11:39:53;9.04;99.99
64499;SHT31;51087;55.718;21.122;2023-03-23T11:42:24;9.04;99.99
64499;SHT31;51087;55.718;21.122;2023-03-23T11:45:24;9.01;99.99
64499;SHT31;51087;55.718;21.122;2023-03-23T11:58:45;8.66;99.99
64499;SHT31;51087;55.718;21.122;2023-03-23T12:01:29;8.58;99.99
64499;SHT31;51087;55.718;21.122;2023-03-23T12:07:18;8.49;99.99
64499;SHT31;51087;55.718;21.122;2023-03-23T12:15:31;7.96;99.99
64499;SHT31;51087;55.718;21.122;2023-03-23T12:18:13;7.85;99.99
64499;SHT31;51087;55.718;21.122;2023-03-23T12:39:30;7.32;99.99
64499;SHT31;51087;55.718;21.122;2023-03-23T12:42:16;7.20;99.99
64499;SHT31;51087;55.718;21.122;2023-03-23T12:44:52;7.03;99.99
64499;SHT31;51087;55.718;21.122;2023-03-23T12:50:33;6.99;99.99
64499;SHT31;51087;55.718;21.122;2023-03-23T12:53:20;7.04;99.99
64499;SHT31;51087;55.718;21.122;2023-03-23T12:55:49;7.07;99.99
64499;SHT31;51087;55.718;21.122;2023-03-23T12:58:20;7.04;99.99
64499;SHT31;51087;55.718;21.122;2023-03-23T13:00:57;7.03;99.99
64499;SHT31;51087;55.718;21.122;2023-03-23T13:03:32;7.04;99.99
64499;SHT31;51087;55.718;21.122;2023-03-23T13:11:21;7.01;99.99
64499;SHT31;51087;55.718;21.122;2023-03-23T13:13:56;6.94;99.99
64499;SHT31;51087;55.718;21.122;2023-03-23T13:16:31;6.99;99.99
64499;SHT31;51087;55.718;21.122;2023-03-23T13:19:18;6.96;99.99
64499;SHT31;51087;55.718;21.122;2023-03-23T13:24:28;6.86;99.99
64499;SHT31;51087;55.718;21.122;2023-03-23T13:26:55;6.84;99.99
64499;SHT31;51087;55.718;21.122;2023-03-23T13:29:24;7.05;99.99
64499;SHT31;51087;55.718;21.122;2023-03-23T13:31:51;6.92;99.99
64499;SHT31;51087;55.718;21.122;2023-03-23T13:34:23;6.93;99.99
64499;SHT31;51087;55.718;21.122;2023-03-23T13:36:55;6.92;99.99
64499;SHT31;51087;55.718;21.122;2023-03-23T13:44:55;6.82;99.99
64499;SHT31;51087;55.718;21.122;2023-03-23T13:49:58;6.84;99.99
64499;SHT31;51087;55.718;21.122;2023-03-23T14:05:50;6.86;99.99
64499;SHT31;51087;55.718;21.122;2023-03-23T14:13:36;6.69;99.99
64499;SHT31;51087;55.718;21.122;2023-03-23T14:16:05;6.71;99.99
64499;SHT31;51087;55.718;21.122;2023-03-23T14:18:39;6.63;99.99
64499;SHT31;51087;55.718;21.122;2023-03-23T14:21:11;6.62;99.99
64499;SHT31;51087;55.718;21.122;2023-03-23T14:23:39;6.63;99.99
64499;SHT31;51087;55.718;21.122;2023-03-23T14:26:10;6.73;99.99
64499;SHT31;51087;55.718;21.122;2023-03-23T14:28:43;6.68;99.99
64499;SHT31;51087;55.718;21.122;2023-03-23T14:31:18;6.66;99.99
64499;SHT31;51087;55.718;21.122;2023-03-23T14:33:44;6.66;99.99
64499;SHT31;51087;55.718;21.122;2023-03-23T14:36:10;6.68;99.99
64499;SHT31;51087;55.718;21.122;2023-03-23T14:38:35;6.72;99.99
64499;SHT31;51087;55.718;21.122;2023-03-23T14:41:05;6.65;99.99
64499;SHT31;51087;55.718;21.122;2023-03-23T14:43:32;6.63;99.99
64499;SHT31;51087;55.718;21.122;2023-03-23T14:46:01;6.66;99.99
64499;SHT31;51087;55.718;21.122;2023-03-23T14:48:28;6.59;99.99
64499;SHT31;51087;55.718;21.122;2023-03-23T14:50:59;6.62;99.99
64499;SHT31;51087;55.718;21.122;2023-03-23T14:53:37;6.53;99.99
64499;SHT31;51087;55.718;21.122;2023-03-23T14:56:12;6.62;99.99
64499;SHT31;51087;55.718;21.122;2023-03-23T14:58:38;6.86;99.99
64499;SHT31;51087;55.718;21.122;2023-03-23T15:01:12;6.97;99.99
64499;SHT31;51087;55.718;21.122;2023-03-23T15:03:44;7.04;99.99
64499;SHT31;51087;55.718;21.122;2023-03-23T15:06:19;6.97;99.99
64499;SHT31;51087;55.718;21.122;2023-03-23T15:08:47;6.90;99.99
64499;SHT31;51087;55.718;21.122;2023-03-23T15:13:45;7.01;99.99
64499;SHT31;51087;55.718;21.122;2023-03-23T15:16:17;7.27;99.99
64499;SHT31;51087;55.718;21.122;2023-03-23T15:18:49;7.28;99.99
64499;SHT31;51087;55.718;21.122;2023-03-23T15:21:23;7.25;99.99
64499;SHT31;51087;55.718;21.122;2023-03-23T15:23:49;7.32;99.99
64499;SHT31;51087;55.718;21.122;2023-03-23T15:32:03;7.31;99.99
64499;SHT31;51087;55.718;21.122;2023-03-23T15:34:34;7.28;99.99
64499;SHT31;51087;55.718;21.122;2023-03-23T15:37:06;7.30;99.99
64499;SHT31;51087;55.718;21.122;2023-03-23T15:39:41;7.31;99.99
64499;SHT31;51087;55.718;21.122;2023-03-23T15:42:06;7.27;99.99
64499;SHT31;51087;55.718;21.122;2023-03-23T15:44:55;7.21;99.99
64499;SHT31;51087;55.718;21.122;2023-03-23T15:47:20;7.30;99.99
64499;SHT31;51087;55.718;21.122;2023-03-23T15:49:58;7.39;99.99
64499;SHT31;51087;55.718;21.122;2023-03-23T15:52:24;7.27;99.99
64499;SHT31;51087;55.718;21.122;2023-03-23T15:54:50;7.47;99.99
64499;SHT31;51087;55.718;21.122;2023-03-23T15:57:16;7.45;99.99
64499;SHT31;51087;55.718;21.122;2023-03-23T15:59:41;7.31;99.99
64499;SHT31;51087;55.718;21.122;2023-03-23T16:02:14;7.36;99.99
64499;SHT31;51087;55.718;21.122;2023-03-23T16:04:41;7.28;99.99
64499;SHT31;51087;55.718;21.122;2023-03-23T16:07:07;7.39;99.99
64499;SHT31;51087;55.718;21.122;2023-03-23T16:09:32;7.41;99.99
64499;SHT31;51087;55.718;21.122;2023-03-23T16:11:58;7.27;99.99
64499;SHT31;51087;55.718;21.122;2023-03-23T16:14:23;7.32;99.99
64499;SHT31;51087;55.718;21.122;2023-03-23T16:16:50;7.08;99.99
64499;SHT31;51087;55.718;21.122;2023-03-23T16:19:17;7.17;99.99
64499;SHT31;51087;55.718;21.122;2023-03-23T16:21:44;7.10;99.99
64499;SHT31;51087;55.718;21.122;2023-03-23T16:24:10;7.10;99.99
64499;SHT31;51087;55.718;21.122;2023-03-23T16:26:36;7.14;99.99
64499;SHT31;51087;55.718;21.122;2023-03-23T16:29:04;7.00;99.99
64499;SHT31;51087;55.718;21.122;2023-03-23T16:31:33;6.93;99.99
64499;SHT31;51087;55.718;21.122;2023-03-23T16:33:58;6.92;99.99
64499;SHT31;51087;55.718;21.122;2023-03-23T16:36:24;6.86;99.99
64499;SHT31;51087;55.718;21.122;2023-03-23T16:38:49;6.89;99.99
64499;SHT31;51087;55.718;21.122;2023-03-23T16:41:15;6.82;99.99
64499;SHT31;51087;55.718;21.122;2023-03-23T16:43:41;6.87;99.99
64499;SHT31;51087;55.718;21.122;2023-03-23T16:46:08;6.76;99.99
64499;SHT31;51087;55.718;21.122;2023-03-23T16:48:36;6.75;99.99
64499;SHT31;51087;55.718;21.122;2023-03-23T16:51:01;6.77;99.99
64499;SHT31;51087;55.718;21.122;2023-03-23T16:53:26;6.73;99.99
64499;SHT31;51087;55.718;21.122;2023-03-23T16:55:52;6.82;99.99
64499;SHT31;51087;55.718;21.122;2023-03-23T16:58:18;6.75;99.99
64499;SHT31;51087;55.718;21.122;2023-03-23T17:00:47;6.71;99.99
64499;SHT31;51087;55.718;21.122;2023-03-23T17:03:12;6.76;99.99
64499;SHT31;51087;55.718;21.122;2023-03-23T17:05:40;6.76;99.99
64499;SHT31;51087;55.718;21.122;2023-03-23T17:08:05;6.65;99.99
64499;SHT31;51087;55.718;21.122;2023-03-23T17:10:31;6.68;99.99
64499;SHT31;51087;55.718;21.122;2023-03-23T17:12:57;6.66;99.99
64499;SHT31;51087;55.718;21.122;2023-03-23T17:15:23;6.63;99.99
64499;SHT31;51087;55.718;21.122;2023-03-23T17:17:50;6.59;99.99
64499;SHT31;51087;55.718;21.122;2023-03-23T17:20:16;6.65;99.99
64499;SHT31;51087;55.718;21.122;2023-03-23T17:22:42;6.66;99.99
64499;SHT31;51087;55.718;21.122;2023-03-23T17:25:08;6.69;99.99
64499;SHT31;51087;55.718;21.122;2023-03-23T17:27:34;6.69;99.99
64499;SHT31;51087;55.718;21.122;2023-03-23T17:30:00;6.79;99.99
64499;SHT31;51087;55.718;21.122;2023-03-23T17:32:26;6.79;99.99
64499;SHT31;51087;55.718;21.122;2023-03-23T17:34:51;6.79;99.99
64499;SHT31;51087;55.718;21.122;2023-03-23T17:37:19;6.90;99.99
64499;SHT31;51087;55.718;21.122;2023-03-23T17:39:44;6.90;99.99
64499;SHT31;51087;55.718;21.122;2023-03-23T17:42:10;6.99;99.99
64499;SHT31;51087;55.718;21.122;2023-03-23T17:44:35;7.00;99.99
64499;SHT31;51087;55.718;21.122;2023-03-23T17:47:01;7.04;99.99
64499;SHT31;51087;55.718;21.122;2023-03-23T17:49:27;7.00;99.99